sensor_id;sensor_type;location;lat;lon;timestamp;P1;durP1;ratioP1;P2;durP2;ratioP2
6955;SDS011;50345;51.136;16.886;2023-06-10T00:02:08;9.57;;;8.88;;
6955;SDS011;50345;51.136;16.886;2023-06-10T00:04:34;9.60;;;8.90;;
6955;SDS011;50345;51.136;16.886;2023-06-10T00:07:02;10.32;;;9.52;;
6955;SDS011;50345;51.136;16.886;2023-06-10T00:09:29;9.55;;;8.65;;
6955;SDS011;50345;51.136;16.886;2023-06-10T00:11:55;9.73;;;8.93;;
6955;SDS011;50345;51.136;16.886;2023-06-10T00:14:31;10.88;;;10.00;;
6955;SDS011;50345;51.136;16.886;2023-06-10T00:16:57;11.05;;;10.05;;
6955;SDS011;50345;51.136;16.886;2023-06-10T00:19:29;12.32;;;11.32;;
6955;SDS011;50345;51.136;16.886;2023-06-10T00:21:56;12.75;;;11.65;;
6955;SDS011;50345;51.136;16.886;2023-06-10T00:24:22;11.20;;;10.15;;
6955;SDS011;50345;51.136;16.886;2023-06-10T00:26:49;10.75;;;9.85;;
6955;SDS011;50345;51.136;16.886;2023-06-10T00:29:15;11.13;;;10.23;;
6955;SDS011;50345;51.136;16.886;2023-06-10T00:31:41;12.10;;;9.25;;
6955;SDS011;50345;51.136;16.886;2023-06-10T00:34:07;10.50;;;9.57;;
6955;SDS011;50345;51.136;16.886;2023-06-10T00:36:33;9.15;;;8.25;;
6955;SDS011;50345;51.136;16.886;2023-06-10T00:39:00;11.75;;;10.13;;
6955;SDS011;50345;51.136;16.886;2023-06-10T00:41:27;11.80;;;9.50;;
6955;SDS011;50345;51.136;16.886;2023-06-10T00:43:54;12.25;;;11.15;;
6955;SDS011;50345;51.136;16.886;2023-06-10T00:46:21;15.82;;;11.32;;
6955;SDS011;50345;51.136;16.886;2023-06-10T00:48:47;11.88;;;10.77;;
6955;SDS011;50345;51.136;16.886;2023-06-10T00:51:13;11.18;;;9.90;;
6955;SDS011;50345;51.136;16.886;2023-06-10T00:53:39;12.57;;;11.32;;
6955;SDS011;50345;51.136;16.886;2023-06-10T00:56:06;11.90;;;10.88;;
6955;SDS011;50345;51.136;16.886;2023-06-10T00:58:32;12.25;;;11.25;;
6955;SDS011;50345;51.136;16.886;2023-06-10T01:00:59;13.23;;;12.15;;
6955;SDS011;50345;51.136;16.886;2023-06-10T01:03:25;12.52;;;11.43;;
6955;SDS011;50345;51.136;16.886;2023-06-10T01:05:53;12.40;;;11.40;;
6955;SDS011;50345;51.136;16.886;2023-06-10T01:11:11;11.85;;;10.80;;
6955;SDS011;50345;51.136;16.886;2023-06-10T01:13:40;13.10;;;12.10;;
6955;SDS011;50345;51.136;16.886;2023-06-10T01:16:07;13.63;;;12.35;;
6955;SDS011;50345;51.136;16.886;2023-06-10T01:18:33;13.40;;;12.35;;
6955;SDS011;50345;51.136;16.886;2023-06-10T01:20:59;11.63;;;10.70;;
6955;SDS011;50345;51.136;16.886;2023-06-10T01:23:25;12.07;;;11.07;;
6955;SDS011;50345;51.136;16.886;2023-06-10T01:25:53;12.43;;;11.23;;
6955;SDS011;50345;51.136;16.886;2023-06-10T01:28:24;12.95;;;11.95;;
6955;SDS011;50345;51.136;16.886;2023-06-10T01:31:00;13.38;;;12.38;;
6955;SDS011;50345;51.136;16.886;2023-06-10T01:33:33;12.70;;;11.35;;
6955;SDS011;50345;51.136;16.886;2023-06-10T01:36:00;11.85;;;10.85;;
6955;SDS011;50345;51.136;16.886;2023-06-10T01:38:28;12.30;;;11.35;;
6955;SDS011;50345;51.136;16.886;2023-06-10T01:40:56;12.07;;;11.18;;
6955;SDS011;50345;51.136;16.886;2023-06-10T01:43:23;12.70;;;11.57;;
6955;SDS011;50345;51.136;16.886;2023-06-10T01:45:49;11.50;;;10.50;;
6955;SDS011;50345;51.136;16.886;2023-06-10T01:48:16;12.02;;;11.02;;
6955;SDS011;50345;51.136;16.886;2023-06-10T01:50:42;11.98;;;10.95;;
6955;SDS011;50345;51.136;16.886;2023-06-10T01:53:09;12.95;;;11.65;;
6955;SDS011;50345;51.136;16.886;2023-06-10T01:55:35;13.10;;;12.02;;
6955;SDS011;50345;51.136;16.886;2023-06-10T01:58:01;12.13;;;11.20;;
6955;SDS011;50345;51.136;16.886;2023-06-10T02:00:27;11.77;;;10.57;;
6955;SDS011;50345;51.136;16.886;2023-06-10T02:02:53;11.75;;;10.85;;
6955;SDS011;50345;51.136;16.886;2023-06-10T02:05:20;10.63;;;9.63;;
6955;SDS011;50345;51.136;16.886;2023-06-10T02:07:46;11.07;;;10.18;;
6955;SDS011;50345;51.136;16.886;2023-06-10T02:10:12;11.57;;;10.40;;
6955;SDS011;50345;51.136;16.886;2023-06-10T02:12:38;11.82;;;10.80;;
6955;SDS011;50345;51.136;16.886;2023-06-10T02:15:04;12.35;;;11.35;;
6955;SDS011;50345;51.136;16.886;2023-06-10T02:17:30;12.50;;;11.35;;
6955;SDS011;50345;51.136;16.886;2023-06-10T02:19:57;12.65;;;11.65;;
6955;SDS011;50345;51.136;16.886;2023-06-10T02:22:25;12.23;;;11.25;;
6955;SDS011;50345;51.136;16.886;2023-06-10T02:24:51;11.95;;;11.05;;
6955;SDS011;50345;51.136;16.886;2023-06-10T02:27:18;13.07;;;11.88;;
6955;SDS011;50345;51.136;16.886;2023-06-10T02:29:44;12.23;;;11.32;;
6955;SDS011;50345;51.136;16.886;2023-06-10T02:32:10;10.80;;;10.05;;
6955;SDS011;50345;51.136;16.886;2023-06-10T02:34:37;14.45;;;12.95;;
6955;SDS011;50345;51.136;16.886;2023-06-10T02:37:03;12.35;;;11.25;;
6955;SDS011;50345;51.136;16.886;2023-06-10T02:39:29;13.07;;;11.85;;
6955;SDS011;50345;51.136;16.886;2023-06-10T02:41:55;12.70;;;11.57;;
6955;SDS011;50345;51.136;16.886;2023-06-10T02:44:21;13.55;;;12.25;;
6955;SDS011;50345;51.136;16.886;2023-06-10T02:46:47;12.18;;;11.05;;
6955;SDS011;50345;51.136;16.886;2023-06-10T02:49:13;12.68;;;11.45;;
6955;SDS011;50345;51.136;16.886;2023-06-10T02:51:39;11.52;;;10.52;;
6955;SDS011;50345;51.136;16.886;2023-06-10T02:54:05;13.23;;;11.93;;
6955;SDS011;50345;51.136;16.886;2023-06-10T02:56:31;11.98;;;10.98;;
6955;SDS011;50345;51.136;16.886;2023-06-10T02:58:58;12.82;;;11.75;;
6955;SDS011;50345;51.136;16.886;2023-06-10T03:01:24;11.80;;;10.80;;
6955;SDS011;50345;51.136;16.886;2023-06-10T03:03:50;12.70;;;11.50;;
6955;SDS011;50345;51.136;16.886;2023-06-10T03:06:17;13.55;;;11.98;;
6955;SDS011;50345;51.136;16.886;2023-06-10T03:08:44;12.25;;;11.25;;
6955;SDS011;50345;51.136;16.886;2023-06-10T03:11:12;12.20;;;11.20;;
6955;SDS011;50345;51.136;16.886;2023-06-10T03:13:38;12.25;;;11.35;;
6955;SDS011;50345;51.136;16.886;2023-06-10T03:16:05;12.80;;;11.82;;
6955;SDS011;50345;51.136;16.886;2023-06-10T03:18:32;12.77;;;11.55;;
6955;SDS011;50345;51.136;16.886;2023-06-10T03:20:58;13.23;;;12.02;;
6955;SDS011;50345;51.136;16.886;2023-06-10T03:23:25;11.68;;;10.77;;
6955;SDS011;50345;51.136;16.886;2023-06-10T03:25:52;11.98;;;11.07;;
6955;SDS011;50345;51.136;16.886;2023-06-10T03:28:19;13.07;;;11.98;;
6955;SDS011;50345;51.136;16.886;2023-06-10T03:30:46;12.88;;;11.77;;
6955;SDS011;50345;51.136;16.886;2023-06-10T03:33:12;13.68;;;12.48;;
6955;SDS011;50345;51.136;16.886;2023-06-10T03:35:39;13.23;;;12.13;;
6955;SDS011;50345;51.136;16.886;2023-06-10T03:38:05;13.15;;;11.05;;
6955;SDS011;50345;51.136;16.886;2023-06-10T03:40:31;12.98;;;11.93;;
6955;SDS011;50345;51.136;16.886;2023-06-10T03:42:57;13.40;;;12.20;;
6955;SDS011;50345;51.136;16.886;2023-06-10T03:45:24;12.45;;;11.40;;
6955;SDS011;50345;51.136;16.886;2023-06-10T03:47:53;13.20;;;12.10;;
6955;SDS011;50345;51.136;16.886;2023-06-10T03:50:20;12.80;;;11.85;;
6955;SDS011;50345;51.136;16.886;2023-06-10T03:52:48;13.15;;;11.85;;
6955;SDS011;50345;51.136;16.886;2023-06-10T03:55:14;12.70;;;11.70;;
6955;SDS011;50345;51.136;16.886;2023-06-10T03:57:42;13.13;;;12.10;;
6955;SDS011;50345;51.136;16.886;2023-06-10T04:00:08;14.20;;;12.80;;
6955;SDS011;50345;51.136;16.886;2023-06-10T04:02:40;15.20;;;13.68;;
6955;SDS011;50345;51.136;16.886;2023-06-10T04:05:17;14.63;;;13.43;;
6955;SDS011;50345;51.136;16.886;2023-06-10T04:07:43;14.25;;;12.95;;
6955;SDS011;50345;51.136;16.886;2023-06-10T04:10:12;14.73;;;13.48;;
6955;SDS011;50345;51.136;16.886;2023-06-10T04:12:38;17.75;;;13.65;;
6955;SDS011;50345;51.136;16.886;2023-06-10T04:15:05;14.15;;;12.95;;
6955;SDS011;50345;51.136;16.886;2023-06-10T04:17:32;14.27;;;12.95;;
6955;SDS011;50345;51.136;16.886;2023-06-10T04:19:58;14.52;;;13.23;;
6955;SDS011;50345;51.136;16.886;2023-06-10T04:22:24;14.40;;;13.10;;
6955;SDS011;50345;51.136;16.886;2023-06-10T04:24:51;15.00;;;13.52;;
6955;SDS011;50345;51.136;16.886;2023-06-10T04:27:17;15.23;;;13.93;;
6955;SDS011;50345;51.136;16.886;2023-06-10T04:29:43;14.43;;;13.10;;
6955;SDS011;50345;51.136;16.886;2023-06-10T04:32:09;13.65;;;12.52;;
6955;SDS011;50345;51.136;16.886;2023-06-10T04:34:35;14.82;;;13.70;;
6955;SDS011;50345;51.136;16.886;2023-06-10T04:37:04;14.65;;;13.55;;
6955;SDS011;50345;51.136;16.886;2023-06-10T04:39:30;13.55;;;12.45;;
6955;SDS011;50345;51.136;16.886;2023-06-10T04:41:57;16.83;;;15.18;;
6955;SDS011;50345;51.136;16.886;2023-06-10T04:44:23;15.30;;;13.82;;
6955;SDS011;50345;51.136;16.886;2023-06-10T04:46:49;15.35;;;13.85;;
6955;SDS011;50345;51.136;16.886;2023-06-10T04:49:15;16.63;;;14.75;;
6955;SDS011;50345;51.136;16.886;2023-06-10T04:51:42;14.75;;;13.43;;
6955;SDS011;50345;51.136;16.886;2023-06-10T04:54:08;14.73;;;13.32;;
6955;SDS011;50345;51.136;16.886;2023-06-10T04:56:34;16.85;;;15.40;;
6955;SDS011;50345;51.136;16.886;2023-06-10T04:59:00;16.23;;;14.87;;
6955;SDS011;50345;51.136;16.886;2023-06-10T05:01:26;15.90;;;14.53;;
6955;SDS011;50345;51.136;16.886;2023-06-10T05:03:52;14.07;;;12.88;;
6955;SDS011;50345;51.136;16.886;2023-06-10T05:06:19;17.87;;;16.23;;
6955;SDS011;50345;51.136;16.886;2023-06-10T05:08:45;18.17;;;16.30;;
6955;SDS011;50345;51.136;16.886;2023-06-10T05:11:11;16.15;;;14.85;;
6955;SDS011;50345;51.136;16.886;2023-06-10T05:13:37;17.75;;;16.17;;
6955;SDS011;50345;51.136;16.886;2023-06-10T05:16:05;16.00;;;14.70;;
6955;SDS011;50345;51.136;16.886;2023-06-10T05:18:32;16.70;;;15.40;;
6955;SDS011;50345;51.136;16.886;2023-06-10T05:20:58;16.83;;;15.17;;
6955;SDS011;50345;51.136;16.886;2023-06-10T05:23:24;16.50;;;15.20;;
6955;SDS011;50345;51.136;16.886;2023-06-10T05:25:50;18.40;;;16.70;;
6955;SDS011;50345;51.136;16.886;2023-06-10T05:28:16;16.90;;;15.63;;
6955;SDS011;50345;51.136;16.886;2023-06-10T05:30:43;17.00;;;15.60;;
6955;SDS011;50345;51.136;16.886;2023-06-10T05:33:09;19.50;;;17.80;;
6955;SDS011;50345;51.136;16.886;2023-06-10T05:35:35;17.00;;;15.57;;
6955;SDS011;50345;51.136;16.886;2023-06-10T05:38:02;17.33;;;15.87;;
6955;SDS011;50345;51.136;16.886;2023-06-10T05:40:28;17.40;;;15.60;;
6955;SDS011;50345;51.136;16.886;2023-06-10T05:42:54;15.57;;;14.37;;
6955;SDS011;50345;51.136;16.886;2023-06-10T05:45:20;17.17;;;15.77;;
6955;SDS011;50345;51.136;16.886;2023-06-10T05:47:46;16.10;;;14.77;;
6955;SDS011;50345;51.136;16.886;2023-06-10T05:50:12;17.70;;;16.27;;
6955;SDS011;50345;51.136;16.886;2023-06-10T05:52:38;16.57;;;15.27;;
6955;SDS011;50345;51.136;16.886;2023-06-10T05:55:07;18.27;;;16.77;;
6955;SDS011;50345;51.136;16.886;2023-06-10T05:57:33;18.50;;;16.90;;
6955;SDS011;50345;51.136;16.886;2023-06-10T06:00:00;15.67;;;14.50;;
6955;SDS011;50345;51.136;16.886;2023-06-10T06:02:26;17.50;;;15.90;;
6955;SDS011;50345;51.136;16.886;2023-06-10T06:04:52;17.37;;;16.07;;
6955;SDS011;50345;51.136;16.886;2023-06-10T06:07:18;18.40;;;17.00;;
6955;SDS011;50345;51.136;16.886;2023-06-10T06:09:45;17.20;;;15.90;;
6955;SDS011;50345;51.136;16.886;2023-06-10T06:12:11;20.97;;;18.70;;
6955;SDS011;50345;51.136;16.886;2023-06-10T06:14:38;20.20;;;18.43;;
6955;SDS011;50345;51.136;16.886;2023-06-10T06:17:05;16.80;;;15.50;;
6955;SDS011;50345;51.136;16.886;2023-06-10T06:19:31;17.83;;;16.43;;
6955;SDS011;50345;51.136;16.886;2023-06-10T06:21:57;17.67;;;16.17;;
6955;SDS011;50345;51.136;16.886;2023-06-10T06:24:23;16.90;;;15.63;;
6955;SDS011;50345;51.136;16.886;2023-06-10T06:26:49;17.07;;;15.53;;
6955;SDS011;50345;51.136;16.886;2023-06-10T06:29:15;16.40;;;15.20;;
6955;SDS011;50345;51.136;16.886;2023-06-10T06:31:41;15.47;;;14.30;;
6955;SDS011;50345;51.136;16.886;2023-06-10T06:34:08;15.17;;;14.17;;
6955;SDS011;50345;51.136;16.886;2023-06-10T06:36:34;15.30;;;13.90;;
6955;SDS011;50345;51.136;16.886;2023-06-10T06:39:00;15.87;;;14.43;;
6955;SDS011;50345;51.136;16.886;2023-06-10T06:41:26;15.57;;;14.27;;
6955;SDS011;50345;51.136;16.886;2023-06-10T06:43:53;15.90;;;14.60;;
6955;SDS011;50345;51.136;16.886;2023-06-10T06:46:19;16.27;;;14.73;;
6955;SDS011;50345;51.136;16.886;2023-06-10T06:48:47;15.67;;;14.27;;
6955;SDS011;50345;51.136;16.886;2023-06-10T06:51:13;16.87;;;15.50;;
6955;SDS011;50345;51.136;16.886;2023-06-10T06:53:39;15.73;;;14.53;;
6955;SDS011;50345;51.136;16.886;2023-06-10T06:56:12;16.43;;;15.13;;
6955;SDS011;50345;51.136;16.886;2023-06-10T06:58:38;14.80;;;13.70;;
6955;SDS011;50345;51.136;16.886;2023-06-10T07:01:05;15.90;;;14.43;;
6955;SDS011;50345;51.136;16.886;2023-06-10T07:03:31;15.50;;;14.27;;
6955;SDS011;50345;51.136;16.886;2023-06-10T07:05:57;14.83;;;13.73;;
6955;SDS011;50345;51.136;16.886;2023-06-10T07:08:23;15.23;;;14.03;;
6955;SDS011;50345;51.136;16.886;2023-06-10T07:10:49;15.77;;;14.37;;
6955;SDS011;50345;51.136;16.886;2023-06-10T07:13:15;16.37;;;14.80;;
6955;SDS011;50345;51.136;16.886;2023-06-10T07:15:41;18.43;;;16.20;;
6955;SDS011;50345;51.136;16.886;2023-06-10T07:18:07;15.53;;;14.00;;
6955;SDS011;50345;51.136;16.886;2023-06-10T07:20:34;14.70;;;13.50;;
6955;SDS011;50345;51.136;16.886;2023-06-10T07:23:00;14.60;;;13.10;;
6955;SDS011;50345;51.136;16.886;2023-06-10T07:25:26;13.67;;;12.57;;
6955;SDS011;50345;51.136;16.886;2023-06-10T07:27:52;14.80;;;13.50;;
6955;SDS011;50345;51.136;16.886;2023-06-10T07:30:18;14.20;;;13.10;;
6955;SDS011;50345;51.136;16.886;2023-06-10T07:32:44;13.13;;;12.03;;
6955;SDS011;50345;51.136;16.886;2023-06-10T07:35:10;14.00;;;12.90;;
6955;SDS011;50345;51.136;16.886;2023-06-10T07:37:36;13.87;;;12.77;;
6955;SDS011;50345;51.136;16.886;2023-06-10T07:40:03;12.17;;;11.27;;
6955;SDS011;50345;51.136;16.886;2023-06-10T07:42:30;14.80;;;13.63;;
6955;SDS011;50345;51.136;16.886;2023-06-10T07:44:56;14.50;;;13.50;;
6955;SDS011;50345;51.136;16.886;2023-06-10T07:47:22;13.33;;;12.23;;
6955;SDS011;50345;51.136;16.886;2023-06-10T07:49:49;13.30;;;12.10;;
6955;SDS011;50345;51.136;16.886;2023-06-10T07:52:15;12.57;;;11.57;;
6955;SDS011;50345;51.136;16.886;2023-06-10T07:54:41;13.50;;;12.40;;
6955;SDS011;50345;51.136;16.886;2023-06-10T07:57:07;13.20;;;12.03;;
6955;SDS011;50345;51.136;16.886;2023-06-10T07:59:33;13.50;;;12.40;;
6955;SDS011;50345;51.136;16.886;2023-06-10T08:01:59;12.67;;;11.37;;
6955;SDS011;50345;51.136;16.886;2023-06-10T08:04:25;12.60;;;11.60;;
6955;SDS011;50345;51.136;16.886;2023-06-10T08:06:51;11.77;;;10.30;;
6955;SDS011;50345;51.136;16.886;2023-06-10T08:09:17;10.67;;;9.87;;
6955;SDS011;50345;51.136;16.886;2023-06-10T08:11:44;13.37;;;12.27;;
6955;SDS011;50345;51.136;16.886;2023-06-10T08:14:12;11.57;;;10.67;;
6955;SDS011;50345;51.136;16.886;2023-06-10T08:16:38;11.93;;;10.87;;
6955;SDS011;50345;51.136;16.886;2023-06-10T08:19:04;11.87;;;10.90;;
6955;SDS011;50345;51.136;16.886;2023-06-10T08:21:30;12.80;;;11.70;;
6955;SDS011;50345;51.136;16.886;2023-06-10T08:23:56;12.67;;;11.70;;
6955;SDS011;50345;51.136;16.886;2023-06-10T08:26:25;11.97;;;10.73;;
6955;SDS011;50345;51.136;16.886;2023-06-10T08:28:51;12.87;;;11.87;;
6955;SDS011;50345;51.136;16.886;2023-06-10T08:31:17;13.40;;;12.20;;
6955;SDS011;50345;51.136;16.886;2023-06-10T08:33:43;12.60;;;11.70;;
6955;SDS011;50345;51.136;16.886;2023-06-10T08:36:10;12.90;;;11.60;;
6955;SDS011;50345;51.136;16.886;2023-06-10T08:38:36;12.13;;;11.13;;
6955;SDS011;50345;51.136;16.886;2023-06-10T08:41:02;12.13;;;11.13;;
6955;SDS011;50345;51.136;16.886;2023-06-10T08:43:38;11.03;;;10.03;;
6955;SDS011;50345;51.136;16.886;2023-06-10T08:46:05;9.90;;;9.10;;
6955;SDS011;50345;51.136;16.886;2023-06-10T08:48:34;10.17;;;9.37;;
6955;SDS011;50345;51.136;16.886;2023-06-10T08:51:00;10.83;;;9.93;;
6955;SDS011;50345;51.136;16.886;2023-06-10T08:53:29;11.10;;;10.10;;
6955;SDS011;50345;51.136;16.886;2023-06-10T08:55:56;9.97;;;9.30;;
6955;SDS011;50345;51.136;16.886;2023-06-10T08:58:24;9.60;;;8.80;;
6955;SDS011;50345;51.136;16.886;2023-06-10T09:00:50;10.03;;;9.10;;
6955;SDS011;50345;51.136;16.886;2023-06-10T09:03:17;8.57;;;7.93;;
6955;SDS011;50345;51.136;16.886;2023-06-10T09:05:43;9.27;;;8.47;;
6955;SDS011;50345;51.136;16.886;2023-06-10T09:08:10;8.37;;;7.77;;
6955;SDS011;50345;51.136;16.886;2023-06-10T09:10:36;8.33;;;7.70;;
6955;SDS011;50345;51.136;16.886;2023-06-10T09:13:02;9.30;;;8.70;;
6955;SDS011;50345;51.136;16.886;2023-06-10T09:15:29;8.17;;;7.67;;
6955;SDS011;50345;51.136;16.886;2023-06-10T09:17:55;7.60;;;7.10;;
6955;SDS011;50345;51.136;16.886;2023-06-10T09:20:21;8.67;;;7.97;;
6955;SDS011;50345;51.136;16.886;2023-06-10T09:22:47;9.63;;;8.73;;
6955;SDS011;50345;51.136;16.886;2023-06-10T09:25:14;9.43;;;8.77;;
6955;SDS011;50345;51.136;16.886;2023-06-10T09:27:47;9.40;;;8.80;;
6955;SDS011;50345;51.136;16.886;2023-06-10T09:30:24;10.30;;;9.40;;
6955;SDS011;50345;51.136;16.886;2023-06-10T09:32:52;9.00;;;8.40;;
6955;SDS011;50345;51.136;16.886;2023-06-10T09:35:18;9.93;;;8.93;;
6955;SDS011;50345;51.136;16.886;2023-06-10T09:37:45;10.90;;;10.00;;
6955;SDS011;50345;51.136;16.886;2023-06-10T09:40:11;10.27;;;9.57;;
6955;SDS011;50345;51.136;16.886;2023-06-10T09:42:37;9.67;;;9.03;;
6955;SDS011;50345;51.136;16.886;2023-06-10T09:45:04;10.50;;;9.60;;
6955;SDS011;50345;51.136;16.886;2023-06-10T09:47:30;10.60;;;9.57;;
6955;SDS011;50345;51.136;16.886;2023-06-10T09:49:56;11.87;;;10.97;;
6955;SDS011;50345;51.136;16.886;2023-06-10T09:52:23;12.07;;;11.27;;
6955;SDS011;50345;51.136;16.886;2023-06-10T09:54:50;17.20;;;15.90;;
6955;SDS011;50345;51.136;16.886;2023-06-10T09:57:17;12.07;;;11.30;;
6955;SDS011;50345;51.136;16.886;2023-06-10T09:59:43;14.03;;;13.03;;
6955;SDS011;50345;51.136;16.886;2023-06-10T10:02:14;13.10;;;12.10;;
6955;SDS011;50345;51.136;16.886;2023-06-10T10:04:40;13.70;;;12.70;;
6955;SDS011;50345;51.136;16.886;2023-06-10T10:07:07;12.70;;;11.70;;
6955;SDS011;50345;51.136;16.886;2023-06-10T10:09:35;12.30;;;11.50;;
6955;SDS011;50345;51.136;16.886;2023-06-10T10:12:11;14.60;;;13.20;;
6955;SDS011;50345;51.136;16.886;2023-06-10T10:14:37;13.37;;;12.43;;
6955;SDS011;50345;51.136;16.886;2023-06-10T10:17:04;12.57;;;11.47;;
6955;SDS011;50345;51.136;16.886;2023-06-10T10:19:32;12.80;;;11.80;;
6955;SDS011;50345;51.136;16.886;2023-06-10T10:22:08;11.47;;;10.80;;
6955;SDS011;50345;51.136;16.886;2023-06-10T10:24:36;11.20;;;10.20;;
6955;SDS011;50345;51.136;16.886;2023-06-10T10:27:04;12.17;;;11.17;;
6955;SDS011;50345;51.136;16.886;2023-06-10T10:29:36;11.37;;;10.67;;
6955;SDS011;50345;51.136;16.886;2023-06-10T10:32:04;10.23;;;9.53;;
6955;SDS011;50345;51.136;16.886;2023-06-10T10:34:42;11.10;;;10.07;;
6955;SDS011;50345;51.136;16.886;2023-06-10T10:37:09;11.83;;;10.93;;
6955;SDS011;50345;51.136;16.886;2023-06-10T10:39:35;10.13;;;9.43;;
6955;SDS011;50345;51.136;16.886;2023-06-10T10:42:02;9.10;;;8.50;;
6955;SDS011;50345;51.136;16.886;2023-06-10T10:44:29;8.80;;;8.10;;
6955;SDS011;50345;51.136;16.886;2023-06-10T10:46:55;8.93;;;8.33;;
6955;SDS011;50345;51.136;16.886;2023-06-10T10:49:22;8.70;;;8.10;;
6955;SDS011;50345;51.136;16.886;2023-06-10T10:54:29;8.63;;;7.83;;
6955;SDS011;50345;51.136;16.886;2023-06-10T10:57:17;9.00;;;8.30;;
6955;SDS011;50345;51.136;16.886;2023-06-10T11:02:17;8.67;;;7.97;;
6955;SDS011;50345;51.136;16.886;2023-06-10T11:04:47;7.17;;;6.47;;
6955;SDS011;50345;51.136;16.886;2023-06-10T11:07:13;6.80;;;6.27;;
6955;SDS011;50345;51.136;16.886;2023-06-10T11:10:28;7.30;;;6.80;;
6955;SDS011;50345;51.136;16.886;2023-06-10T11:12:41;7.67;;;7.00;;
6955;SDS011;50345;51.136;16.886;2023-06-10T11:15:10;6.63;;;6.20;;
6955;SDS011;50345;51.136;16.886;2023-06-10T11:23:09;6.20;;;5.63;;
6955;SDS011;50345;51.136;16.886;2023-06-10T11:25:38;7.83;;;5.87;;
6955;SDS011;50345;51.136;16.886;2023-06-10T11:28:16;6.40;;;5.90;;
6955;SDS011;50345;51.136;16.886;2023-06-10T11:30:44;7.07;;;6.40;;
6955;SDS011;50345;51.136;16.886;2023-06-10T11:33:14;6.83;;;6.33;;
6955;SDS011;50345;51.136;16.886;2023-06-10T11:35:40;6.70;;;6.00;;
6955;SDS011;50345;51.136;16.886;2023-06-10T11:38:06;7.37;;;6.80;;
6955;SDS011;50345;51.136;16.886;2023-06-10T11:40:32;6.00;;;5.50;;
6955;SDS011;50345;51.136;16.886;2023-06-10T11:42:59;6.93;;;5.87;;
6955;SDS011;50345;51.136;16.886;2023-06-10T11:45:26;6.13;;;5.63;;
6955;SDS011;50345;51.136;16.886;2023-06-10T11:47:55;6.23;;;5.73;;
6955;SDS011;50345;51.136;16.886;2023-06-10T11:50:33;6.23;;;5.70;;
6955;SDS011;50345;51.136;16.886;2023-06-10T11:52:59;6.20;;;5.60;;
6955;SDS011;50345;51.136;16.886;2023-06-10T11:55:47;5.77;;;5.30;;
6955;SDS011;50345;51.136;16.886;2023-06-10T11:58:19;6.17;;;5.77;;
6955;SDS011;50345;51.136;16.886;2023-06-10T12:03:12;6.20;;;5.60;;
6955;SDS011;50345;51.136;16.886;2023-06-10T12:05:38;6.73;;;6.13;;
6955;SDS011;50345;51.136;16.886;2023-06-10T12:08:07;7.10;;;6.60;;
6955;SDS011;50345;51.136;16.886;2023-06-10T12:10:40;5.30;;;4.90;;
6955;SDS011;50345;51.136;16.886;2023-06-10T12:13:07;5.97;;;5.57;;
6955;SDS011;50345;51.136;16.886;2023-06-10T12:15:36;7.23;;;6.53;;
6955;SDS011;50345;51.136;16.886;2023-06-10T12:18:02;6.50;;;6.00;;
6955;SDS011;50345;51.136;16.886;2023-06-10T12:20:29;6.70;;;6.20;;
6955;SDS011;50345;51.136;16.886;2023-06-10T12:22:58;6.43;;;5.83;;
6955;SDS011;50345;51.136;16.886;2023-06-10T12:25:25;6.53;;;5.90;;
6955;SDS011;50345;51.136;16.886;2023-06-10T12:27:52;7.40;;;6.80;;
6955;SDS011;50345;51.136;16.886;2023-06-10T12:30:19;5.83;;;5.53;;
6955;SDS011;50345;51.136;16.886;2023-06-10T12:32:46;6.30;;;5.80;;
6955;SDS011;50345;51.136;16.886;2023-06-10T12:35:14;5.37;;;4.90;;
6955;SDS011;50345;51.136;16.886;2023-06-10T12:37:40;6.17;;;5.53;;
6955;SDS011;50345;51.136;16.886;2023-06-10T12:40:06;6.00;;;5.60;;
6955;SDS011;50345;51.136;16.886;2023-06-10T12:42:35;5.83;;;5.13;;
6955;SDS011;50345;51.136;16.886;2023-06-10T12:45:03;5.70;;;5.30;;
6955;SDS011;50345;51.136;16.886;2023-06-10T12:47:34;6.70;;;5.30;;
6955;SDS011;50345;51.136;16.886;2023-06-10T12:50:01;6.43;;;5.80;;
6955;SDS011;50345;51.136;16.886;2023-06-10T12:52:28;5.40;;;5.03;;
6955;SDS011;50345;51.136;16.886;2023-06-10T12:54:54;6.13;;;5.63;;
6955;SDS011;50345;51.136;16.886;2023-06-10T12:57:20;6.10;;;5.10;;
6955;SDS011;50345;51.136;16.886;2023-06-10T12:59:46;5.03;;;4.73;;
6955;SDS011;50345;51.136;16.886;2023-06-10T13:02:17;5.97;;;5.57;;
6955;SDS011;50345;51.136;16.886;2023-06-10T13:04:49;5.43;;;5.10;;
6955;SDS011;50345;51.136;16.886;2023-06-10T13:07:15;5.50;;;5.10;;
6955;SDS011;50345;51.136;16.886;2023-06-10T13:09:41;6.33;;;5.23;;
6955;SDS011;50345;51.136;16.886;2023-06-10T13:12:07;5.97;;;5.47;;
6955;SDS011;50345;51.136;16.886;2023-06-10T13:14:33;4.57;;;4.33;;
6955;SDS011;50345;51.136;16.886;2023-06-10T13:16:59;6.13;;;5.10;;
6955;SDS011;50345;51.136;16.886;2023-06-10T13:19:25;5.77;;;5.47;;
6955;SDS011;50345;51.136;16.886;2023-06-10T13:21:54;5.40;;;4.90;;
6955;SDS011;50345;51.136;16.886;2023-06-10T13:24:19;5.30;;;4.80;;
6955;SDS011;50345;51.136;16.886;2023-06-10T13:26:45;7.20;;;5.40;;
6955;SDS011;50345;51.136;16.886;2023-06-10T13:29:11;5.23;;;4.73;;
6955;SDS011;50345;51.136;16.886;2023-06-10T13:31:39;9.90;;;4.40;;
6955;SDS011;50345;51.136;16.886;2023-06-10T13:34:05;5.10;;;4.70;;
6955;SDS011;50345;51.136;16.886;2023-06-10T13:36:31;4.57;;;4.17;;
6955;SDS011;50345;51.136;16.886;2023-06-10T13:38:57;6.03;;;4.47;;
6955;SDS011;50345;51.136;16.886;2023-06-10T13:41:22;5.33;;;4.83;;
6955;SDS011;50345;51.136;16.886;2023-06-10T13:43:48;4.67;;;4.30;;
6955;SDS011;50345;51.136;16.886;2023-06-10T13:46:14;4.73;;;4.30;;
6955;SDS011;50345;51.136;16.886;2023-06-10T13:48:39;8.50;;;4.67;;
6955;SDS011;50345;51.136;16.886;2023-06-10T13:51:06;5.80;;;4.07;;
6955;SDS011;50345;51.136;16.886;2023-06-10T13:53:32;5.13;;;4.70;;
6955;SDS011;50345;51.136;16.886;2023-06-10T13:55:57;3.97;;;3.77;;
6955;SDS011;50345;51.136;16.886;2023-06-10T13:58:23;4.10;;;3.77;;
6955;SDS011;50345;51.136;16.886;2023-06-10T14:00:49;8.37;;;4.60;;
6955;SDS011;50345;51.136;16.886;2023-06-10T14:03:15;4.70;;;4.13;;
6955;SDS011;50345;51.136;16.886;2023-06-10T14:05:40;5.97;;;3.90;;
6955;SDS011;50345;51.136;16.886;2023-06-10T14:08:06;4.07;;;3.77;;
6955;SDS011;50345;51.136;16.886;2023-06-10T14:10:32;5.03;;;4.70;;
6955;SDS011;50345;51.136;16.886;2023-06-10T14:12:58;4.70;;;4.30;;
6955;SDS011;50345;51.136;16.886;2023-06-10T14:15:23;4.53;;;4.23;;
6955;SDS011;50345;51.136;16.886;2023-06-10T14:17:49;4.40;;;4.00;;
6955;SDS011;50345;51.136;16.886;2023-06-10T14:20:15;8.50;;;4.50;;
6955;SDS011;50345;51.136;16.886;2023-06-10T14:22:41;4.70;;;3.73;;
6955;SDS011;50345;51.136;16.886;2023-06-10T14:25:06;5.73;;;4.30;;
6955;SDS011;50345;51.136;16.886;2023-06-10T14:27:32;5.00;;;4.23;;
6955;SDS011;50345;51.136;16.886;2023-06-10T14:29:58;4.60;;;3.77;;
6955;SDS011;50345;51.136;16.886;2023-06-10T14:32:24;4.80;;;4.40;;
6955;SDS011;50345;51.136;16.886;2023-06-10T14:34:50;4.57;;;4.17;;
6955;SDS011;50345;51.136;16.886;2023-06-10T14:37:15;8.87;;;4.40;;
6955;SDS011;50345;51.136;16.886;2023-06-10T14:39:41;3.97;;;3.67;;
6955;SDS011;50345;51.136;16.886;2023-06-10T14:42:06;6.20;;;4.97;;
6955;SDS011;50345;51.136;16.886;2023-06-10T14:44:32;3.83;;;3.50;;
6955;SDS011;50345;51.136;16.886;2023-06-10T14:46:58;6.17;;;4.00;;